Time;durP1;ratioP1;P1;durP2;ratioP2;P2;SDS_P1;SDS_P2;PMS_P1;PMS_P2;Temp;Humidity;BMP_temperature;BMP_pressure;BME280_temperature;BME280_humidity;BME280_pressure;Samples;Min_cycle;Max_cycle;Signal;HPM_P1;HPM_P2
2023/07/15 00:00:50;;;;;;;0.63;0.30;;;24.50;73.80;;;;;;6346984;28;20046;-49
2023/07/15 00:03:52;;;;;;;0.32;0.20;;;24.90;73.80;;;;;;6330555;28;20039;-45
2023/07/15 00:06:54;;;;;;;0.30;0.20;;;24.80;74.10;;;;;;6345618;27;20035;-44
2023/07/15 00:09:57;;;;;;;0.47;0.40;;;24.70;73.70;;;;;;6327337;28;20126;-47
2023/07/15 00:12:59;;;;;;;0.40;0.30;;;24.60;73.50;;;;;;6345356;27;20047;-48
2023/07/15 00:16:02;;;;;;;0.63;0.30;;;24.40;73.50;;;;;;6347015;27;20053;-45
2023/07/15 00:19:05;;;;;;;0.52;0.28;;;24.60;73.40;;;;;;6347544;28;20032;-48
2023/07/15 00:22:09;;;;;;;0.35;0.25;;;24.70;73.60;;;;;;6349020;28;20043;-47
2023/07/15 00:25:15;;;;;;;0.85;0.40;;;24.70;73.80;;;;;;6348697;27;20032;-47
2023/07/15 00:28:20;;;;;;;0.77;0.25;;;24.60;73.30;;;;;;6330550;28;20079;-51
2023/07/15 00:31:23;;;;;;;0.60;0.30;;;24.70;73.80;;;;;;6342012;27;20071;-45
2023/07/15 00:34:24;;;;;;;0.50;0.30;;;24.80;73.30;;;;;;6344561;28;20031;-49
2023/07/15 00:37:26;;;;;;;0.50;0.22;;;24.60;73.40;;;;;;6345101;27;20032;-48
2023/07/15 00:40:31;;;;;;;0.38;0.30;;;24.70;73.70;;;;;;6345444;27;20031;-46
2023/07/15 00:43:52;;;;;;;0.50;0.20;;;24.80;73.50;;;;;;6348232;28;20118;-48
2023/07/15 00:47:12;;;;;;;1.02;0.40;;;24.50;73.60;;;;;;6347815;27;20036;-47
2023/07/15 00:50:14;;;;;;;0.52;0.30;;;24.60;73.40;;;;;;6330705;28;20506;-51
2023/07/15 00:53:19;;;;;;;0.50;0.30;;;24.50;73.90;;;;;;6345832;28;20046;-49
2023/07/15 00:56:21;;;;;;;0.93;0.32;;;24.30;90.80;;;;;;6346826;27;20042;-48
2023/07/15 00:59:23;;;;;;;0.43;0.40;;;24.50;73.40;;;;;;6327046;28;20038;-49
2023/07/15 01:02:27;;;;;;;0.70;0.40;;;24.60;74.00;;;;;;6347667;28;20054;-50
2023/07/15 01:05:29;;;;;;;0.43;0.40;;;24.60;73.70;;;;;;6348080;27;20043;-46
2023/07/15 01:08:31;;;;;;;0.30;0.20;;;24.40;73.60;;;;;;6350879;28;20039;-50
2023/07/15 01:11:33;;;;;;;0.45;0.32;;;24.20;73.70;;;;;;6348311;27;20039;-47
2023/07/15 01:14:36;;;;;;;1.10;0.30;;;24.40;73.70;;;;;;6328628;27;20035;-48
2023/07/15 01:17:38;;;;;;;0.82;0.40;;;24.50;74.30;;;;;;6348854;28;20095;-49
2023/07/15 01:20:39;;;;;;;0.40;0.30;;;24.40;73.80;;;;;;6348096;27;20070;-48
2023/07/15 01:23:43;;;;;;;0.93;0.32;;;24.60;74.20;;;;;;6349766;28;20035;-49
2023/07/15 01:26:45;;;;;;;0.65;0.40;;;24.60;71.90;;;;;;6349136;28;20046;-49
2023/07/15 01:29:46;;;;;;;0.65;0.40;;;24.50;74.30;;;;;;6351088;27;20086;-49
2023/07/15 01:32:48;;;;;;;0.60;0.40;;;24.70;74.70;;;;;;6347574;27;20039;-47
2023/07/15 01:35:50;;;;;;;0.50;0.40;;;24.40;74.20;;;;;;6348565;27;20565;-48
2023/07/15 01:38:55;;;;;;;1.23;0.40;;;24.20;74.70;;;;;;6346767;27;20534;-45
2023/07/15 01:41:57;;;;;;;0.77;0.30;;;24.50;74.70;;;;;;6345604;27;20039;-49
2023/07/15 01:44:58;;;;;;;0.80;0.40;;;24.60;74.50;;;;;;6346611;27;20450;-46
2023/07/15 01:48:04;;;;;;;0.85;0.30;;;24.50;74.70;;;;;;6346397;27;20028;-43
2023/07/15 01:51:06;;;;;;;0.95;0.52;;;24.60;74.50;;;;;;6347683;28;20039;-45
2023/07/15 01:54:09;;;;;;;0.45;0.30;;;24.40;74.70;;;;;;6345811;28;20072;-48
2023/07/15 01:57:11;;;;;;;0.63;0.38;;;24.40;74.60;;;;;;6346192;27;20541;-46
2023/07/15 02:00:16;;;;;;;1.73;0.82;;;24.20;91.30;;;;;;6346832;27;20050;-45
2023/07/15 02:03:18;;;;;;;0.68;0.40;;;24.30;74.50;;;;;;6345811;27;20043;-47
2023/07/15 02:06:22;;;;;;;0.65;0.40;;;24.40;75.30;;;;;;6344345;28;20613;-47
2023/07/15 02:09:24;;;;;;;1.02;0.50;;;24.60;75.10;;;;;;6345692;27;20039;-46
2023/07/15 02:12:29;;;;;;;1.27;0.47;;;24.60;75.00;;;;;;6345281;28;20444;-45
2023/07/15 02:15:30;;;;;;;0.30;0.20;;;24.50;75.10;;;;;;6345471;28;20050;-48
2023/07/15 02:18:32;;;;;;;0.93;0.38;;;24.30;75.40;;;;;;6345809;28;20062;-46
2023/07/15 02:21:35;;;;;;;0.45;0.30;;;24.50;75.30;;;;;;6347122;28;20061;-45
2023/07/15 02:24:38;;;;;;;0.55;0.22;;;24.50;75.00;;;;;;6346080;28;20035;-45
2023/07/15 02:27:41;;;;;;;0.30;0.30;;;24.50;75.30;;;;;;6345787;28;20032;-48
2023/07/15 02:30:43;;;;;;;0.47;0.40;;;24.50;75.10;;;;;;6344083;28;20051;-46
2023/07/15 02:33:45;;;;;;;0.52;0.40;;;23.80;74.60;;;;;;6343747;28;20131;-46
2023/07/15 02:36:47;;;;;;;0.80;0.50;;;24.50;75.10;;;;;;6346692;28;20027;-49
2023/07/15 02:39:50;;;;;;;0.93;0.30;;;24.60;75.00;;;;;;6346694;27;20055;-45
2023/07/15 02:42:52;;;;;;;0.65;0.40;;;24.50;75.60;;;;;;6346582;28;20055;-48
2023/07/15 02:45:56;;;;;;;0.65;0.30;;;24.50;75.10;;;;;;6347367;27;20529;-46
2023/07/15 02:48:58;;;;;;;0.75;0.50;;;24.50;75.20;;;;;;6336243;27;20346;-48
2023/07/15 02:52:00;;;;;;;0.73;0.30;;;24.30;75.00;;;;;;6355445;28;20561;-49
2023/07/15 02:55:04;;;;;;;0.32;0.30;;;24.40;75.20;;;;;;6354643;27;20043;-47
2023/07/15 02:58:06;;;;;;;0.50;0.30;;;24.50;75.10;;;;;;6349020;27;20042;-61
2023/07/15 03:01:08;;;;;;;0.40;0.32;;;24.60;75.30;;;;;;6327386;28;20483;-60
2023/07/15 03:04:10;;;;;;;0.30;0.28;;;24.00;74.80;;;;;;6346949;27;20392;-60
2023/07/15 03:07:12;;;;;;;0.40;0.20;;;24.40;75.10;;;;;;6347426;28;20443;-60
2023/07/15 03:10:18;;;;;;;0.45;0.30;;;24.50;75.60;;;;;;6347250;28;20039;-60
2023/07/15 03:13:20;;;;;;;0.50;0.20;;;24.40;75.00;;;;;;6346788;27;20307;-60
2023/07/15 03:16:22;;;;;;;0.45;0.20;;;24.50;75.20;;;;;;6347137;27;20513;-60
2023/07/15 03:19:24;;;;;;;0.20;0.20;;;24.30;75.20;;;;;;6347709;28;20035;-60
2023/07/15 03:22:25;;;;;;;0.55;0.30;;;24.50;75.20;;;;;;6347563;27;20031;-60
2023/07/15 03:25:30;;;;;;;0.60;0.35;;;24.00;75.00;;;;;;6347748;28;20294;-60
2023/07/15 03:28:33;;;;;;;0.45;0.22;;;24.30;75.00;;;;;;6347360;27;20054;-60
2023/07/15 03:31:35;;;;;;;0.40;0.20;;;24.50;75.90;;;;;;6347436;27;20043;-60
2023/07/15 03:34:37;;;;;;;0.40;0.40;;;24.30;75.20;;;;;;6347664;28;20032;-60
2023/07/15 03:37:40;;;;;;;0.65;0.40;;;23.90;75.50;;;;;;6347777;28;20035;-60
2023/07/15 03:40:42;;;;;;;0.40;0.40;;;24.90;75.40;;;;;;6347467;27;20083;-60
2023/07/15 03:43:44;;;;;;;0.30;0.20;;;24.30;75.70;;;;;;6347997;28;20523;-60
2023/07/15 03:46:45;;;;;;;0.90;0.30;;;24.30;75.20;;;;;;6346532;28;20149;-60
2023/07/15 03:49:47;;;;;;;0.50;0.28;;;24.30;75.20;;;;;;6347500;27;20035;-60
2023/07/15 03:52:50;;;;;;;0.65;0.20;;;24.30;75.30;;;;;;6346906;28;20031;-60
2023/07/15 03:55:52;;;;;;;0.25;0.20;;;24.30;75.30;;;;;;6346939;27;20047;-60
2023/07/15 03:58:54;;;;;;;0.47;0.20;;;24.50;75.30;;;;;;6347081;27;20073;-60
2023/07/15 04:01:55;;;;;;;0.55;0.30;;;22.60;74.30;;;;;;6347733;28;20525;-60
2023/07/15 04:04:57;;;;;;;0.20;0.20;;;23.80;74.90;;;;;;6347449;28;20490;-60
2023/07/15 04:07:59;;;;;;;0.93;0.40;;;24.40;75.40;;;;;;6347497;28;20039;-60
2023/07/15 04:11:01;;;;;;;0.55;0.30;;;24.40;75.80;;;;;;6347108;27;20051;-61
2023/07/15 04:14:03;;;;;;;0.32;0.30;;;24.30;75.40;;;;;;6346899;28;20038;-60
2023/07/15 04:17:04;;;;;;;0.30;0.30;;;24.30;75.40;;;;;;6347422;27;20039;-60
2023/07/15 04:20:13;;;;;;;0.63;0.30;;;24.30;75.60;;;;;;6347295;27;20046;-60
2023/07/15 04:23:15;;;;;;;0.70;0.30;;;24.00;75.20;;;;;;6346507;28;20051;-60
2023/07/15 04:26:21;;;;;;;0.68;0.38;;;24.40;76.10;;;;;;6347050;28;20285;-60
2023/07/15 04:29:22;;;;;;;0.70;0.40;;;24.20;75.90;;;;;;6346528;28;20042;-60
2023/07/15 04:32:24;;;;;;;0.50;0.32;;;24.20;75.60;;;;;;6346541;27;20055;-60
2023/07/15 04:35:26;;;;;;;0.57;0.30;;;24.40;75.60;;;;;;6345809;28;20327;-61
2023/07/15 04:38:29;;;;;;;0.60;0.40;;;23.80;75.30;;;;;;6344883;28;20063;-60
2023/07/15 04:41:33;;;;;;;0.93;0.40;;;24.30;75.60;;;;;;6345204;27;20062;-60
2023/07/15 04:44:35;;;;;;;0.40;0.32;;;23.80;75.30;;;;;;6347489;28;20027;-60
2023/07/15 04:47:37;;;;;;;0.55;0.40;;;24.20;75.60;;;;;;6346288;28;20031;-61
2023/07/15 04:50:40;;;;;;;1.55;0.60;;;24.30;75.80;;;;;;6345137;28;20118;-60
2023/07/15 04:53:43;;;;;;;0.93;0.40;;;24.20;75.60;;;;;;6346222;28;20043;-60
2023/07/15 04:56:46;;;;;;;0.55;0.25;;;24.00;75.70;;;;;;6345787;27;20545;-60
2023/07/15 04:59:48;;;;;;;0.30;0.30;;;24.10;75.60;;;;;;6346659;28;20383;-59
2023/07/15 05:02:51;;;;;;;0.55;0.30;;;23.80;75.80;;;;;;6342100;27;20051;-47
2023/07/15 05:05:53;;;;;;;0.38;0.30;;;24.20;75.80;;;;;;6333511;27;20583;-47
2023/07/15 05:08:54;;;;;;;1.50;0.40;;;24.30;76.70;;;;;;6337152;27;20497;-49
2023/07/15 05:11:59;;;;;;;0.80;0.40;;;24.00;76.20;;;;;;6337555;27;20122;-48
2023/07/15 05:15:01;;;;;;;0.28;0.20;;;24.30;76.00;;;;;;6336268;27;20190;-46
2023/07/15 05:18:06;;;;;;;0.50;0.22;;;24.30;76.40;;;;;;6340822;28;20035;-44
2023/07/15 05:21:08;;;;;;;0.75;0.40;;;24.20;74.10;;;;;;6287873;28;20138;-49
2023/07/15 05:24:09;;;;;;;0.52;0.40;;;24.00;76.30;;;;;;6319473;28;20042;-49
2023/07/15 05:27:11;;;;;;;0.40;0.30;;;24.20;76.30;;;;;;6340619;28;20417;-46
2023/07/15 05:30:13;;;;;;;0.45;0.20;;;23.80;75.60;;;;;;6340590;28;20467;-51
2023/07/15 05:33:14;;;;;;;0.77;0.55;;;23.80;76.00;;;;;;6339497;28;20046;-46
2023/07/15 05:36:16;;;;;;;0.55;0.35;;;24.20;76.10;;;;;;6340102;28;20027;-46
2023/07/15 05:39:19;;;;;;;0.93;0.30;;;24.10;76.50;;;;;;6339577;27;20092;-47
2023/07/15 05:42:25;;;;;;;1.20;0.43;;;24.00;76.10;;;;;;6339494;28;20242;-46
2023/07/15 05:45:26;;;;;;;1.00;0.40;;;24.30;75.90;;;;;;6338312;27;20038;-45
2023/07/15 05:48:28;;;;;;;0.75;0.30;;;24.20;76.30;;;;;;6338554;27;20043;-47
2023/07/15 05:51:29;;;;;;;0.47;0.38;;;24.20;76.40;;;;;;6341268;28;20081;-46
2023/07/15 05:54:31;;;;;;;0.70;0.30;;;24.20;76.20;;;;;;6337011;27;20035;-50
2023/07/15 05:57:33;;;;;;;0.80;0.30;;;24.30;77.20;;;;;;6336089;27;20039;-46
2023/07/15 06:00:35;;;;;;;0.65;0.30;;;24.40;76.30;;;;;;6337302;28;20039;-50
2023/07/15 06:03:37;;;;;;;0.90;0.35;;;24.20;76.80;;;;;;6336176;28;20043;-45
2023/07/15 06:06:42;;;;;;;1.15;0.40;;;23.80;76.00;;;;;;6343203;27;20586;-49
2023/07/15 06:09:45;;;;;;;0.65;0.40;;;24.30;76.50;;;;;;6347727;28;20040;-50
2023/07/15 06:12:47;;;;;;;0.73;0.40;;;24.20;76.30;;;;;;6348344;28;20362;-49
2023/07/15 06:15:51;;;;;;;1.35;0.50;;;24.30;76.50;;;;;;6348807;27;20123;-45
2023/07/15 06:18:53;;;;;;;0.90;0.40;;;24.00;76.20;;;;;;6348145;27;20035;-48
2023/07/15 06:21:55;;;;;;;0.55;0.30;;;24.10;76.50;;;;;;6351614;27;20256;-49
2023/07/15 06:24:57;;;;;;;0.30;0.30;;;24.20;76.30;;;;;;6354013;27;20495;-47
2023/07/15 06:28:00;;;;;;;0.60;0.40;;;24.20;76.60;;;;;;6353167;27;20039;-46
2023/07/15 06:31:02;;;;;;;1.00;0.40;;;24.30;74.30;;;;;;6335277;28;20050;-47
2023/07/15 06:34:03;;;;;;;0.43;0.30;;;24.40;76.60;;;;;;6335035;27;20037;-47
2023/07/15 06:37:05;;;;;;;1.35;0.30;;;24.20;76.50;;;;;;6352579;28;20323;-44
2023/07/15 06:40:10;;;;;;;0.55;0.30;;;24.00;76.40;;;;;;6352551;27;20062;-47
2023/07/15 06:43:12;;;;;;;0.80;0.47;;;24.30;76.50;;;;;;6352429;27;20038;-46
2023/07/15 06:46:14;;;;;;;0.63;0.40;;;24.10;76.50;;;;;;6352999;27;20036;-49
2023/07/15 06:49:15;;;;;;;0.50;0.35;;;24.30;76.60;;;;;;6352781;27;20579;-49
2023/07/15 06:52:17;;;;;;;0.50;0.20;;;23.90;76.30;;;;;;6351988;28;20043;-48
2023/07/15 06:55:19;;;;;;;0.73;0.40;;;24.30;76.50;;;;;;6352472;27;20079;-46
2023/07/15 06:58:21;;;;;;;0.50;0.38;;;24.50;76.60;;;;;;6351099;27;20039;-47
2023/07/15 07:01:25;;;;;;;1.00;0.40;;;24.30;76.50;;;;;;6354097;27;20039;-48
2023/07/15 07:04:27;;;;;;;0.82;0.30;;;24.30;76.50;;;;;;6351528;28;20031;-45
2023/07/15 07:07:29;;;;;;;0.82;0.60;;;24.30;76.60;;;;;;6351271;28;20238;-50
2023/07/15 07:10:30;;;;;;;0.60;0.30;;;24.20;76.50;;;;;;6352378;27;20070;-47
2023/07/15 07:13:33;;;;;;;0.40;0.30;;;24.20;76.50;;;;;;6352110;27;20092;-47
2023/07/15 07:16:36;;;;;;;0.52;0.50;;;24.40;76.90;;;;;;6351586;28;20451;-45
2023/07/15 07:19:38;;;;;;;0.77;0.30;;;23.90;76.30;;;;;;6350622;28;20035;-44
2023/07/15 07:22:40;;;;;;;0.98;0.30;;;24.20;76.50;;;;;;6349725;27;20127;-46
2023/07/15 07:25:42;;;;;;;1.23;0.30;;;24.40;76.90;;;;;;6351691;28;20497;-51
2023/07/15 07:28:45;;;;;;;1.38;0.43;;;25.10;77.00;;;;;;6350730;27;20035;-48
2023/07/15 07:31:46;;;;;;;1.17;0.40;;;24.00;76.10;;;;;;6351713;27;20107;-49
2023/07/15 07:34:48;;;;;;;1.10;0.50;;;24.30;76.50;;;;;;6349741;27;20036;-47
2023/07/15 07:37:50;;;;;;;0.75;0.35;;;24.30;76.40;;;;;;6350370;28;20043;-59
2023/07/15 07:40:52;;;;;;;0.50;0.30;;;24.30;76.40;;;;;;6348809;28;20190;-60
2023/07/15 07:43:54;;;;;;;0.50;0.30;;;24.00;76.00;;;;;;6349009;27;20282;-60
2023/07/15 07:46:56;;;;;;;0.63;0.30;;;24.30;77.00;;;;;;6346059;27;20518;-60
2023/07/15 07:50:04;;;;;;;0.63;0.40;;;24.00;76.10;;;;;;6346535;27;20112;-60
2023/07/15 07:53:08;;;;;;;0.40;0.28;;;24.30;76.30;;;;;;6345315;28;20497;-60
2023/07/15 07:56:11;;;;;;;0.80;0.30;;;24.00;76.90;;;;;;6345559;28;20043;-60
2023/07/15 07:59:13;;;;;;;0.75;0.20;;;24.30;77.00;;;;;;6347076;27;20469;-60
2023/07/15 08:02:15;;;;;;;0.63;0.30;;;24.30;76.30;;;;;;6343825;27;20054;-60
2023/07/15 08:05:17;;;;;;;0.40;0.30;;;24.40;77.20;;;;;;6344725;28;20315;-60
2023/07/15 08:08:22;;;;;;;0.30;0.17;;;24.40;76.70;;;;;;6345215;27;20047;-61
2023/07/15 08:11:23;;;;;;;0.40;0.30;;;24.40;76.90;;;;;;6344445;28;20531;-60
2023/07/15 08:14:25;;;;;;;0.85;0.50;;;24.10;76.50;;;;;;6346522;27;20088;-60
2023/07/15 08:17:27;;;;;;;1.15;0.30;;;24.40;76.80;;;;;;6345742;27;20280;-60
2023/07/15 08:20:29;;;;;;;0.57;0.20;;;24.40;76.90;;;;;;6344780;28;20047;-60
2023/07/15 08:23:31;;;;;;;0.47;0.20;;;24.50;77.40;;;;;;6311325;28;20046;-60
2023/07/15 08:26:32;;;;;;;0.38;0.30;;;24.50;77.10;;;;;;6345181;27;20031;-60
2023/07/15 08:29:34;;;;;;;0.80;0.35;;;24.50;77.10;;;;;;6346205;28;20038;-60
2023/07/15 08:32:37;;;;;;;0.32;0.20;;;24.50;77.00;;;;;;6346001;28;20042;-60
2023/07/15 08:35:40;;;;;;;0.47;0.20;;;24.40;77.50;;;;;;6345702;28;20036;-60
2023/07/15 08:38:41;;;;;;;0.35;0.20;;;23.90;76.50;;;;;;6346310;28;20561;-60
2023/07/15 08:41:44;;;;;;;0.82;0.57;;;24.30;77.10;;;;;;6347813;27;20488;-60
2023/07/15 08:44:46;;;;;;;0.50;0.30;;;24.40;76.90;;;;;;6347406;27;20031;-60
2023/07/15 08:47:49;;;;;;;0.55;0.30;;;24.50;76.90;;;;;;6346466;28;20031;-60
2023/07/15 08:50:52;;;;;;;0.30;0.20;;;24.10;76.60;;;;;;6344957;27;20027;-60
2023/07/15 08:53:54;;;;;;;0.30;0.30;;;24.50;77.30;;;;;;6346282;28;20046;-61
2023/07/15 08:56:58;;;;;;;0.30;0.30;;;24.70;77.20;;;;;;6346411;27;20031;-61
2023/07/15 09:00:04;;;;;;;0.52;0.20;;;24.00;76.40;;;;;;6344638;28;20387;-60
2023/07/15 09:03:06;;;;;;;0.43;0.30;;;24.50;76.70;;;;;;6344349;28;20050;-60
2023/07/15 09:06:08;;;;;;;0.93;0.50;;;24.60;76.80;;;;;;6343464;27;20035;-60
2023/07/15 09:09:12;;;;;;;0.47;0.30;;;24.30;77.10;;;;;;6344650;27;20035;-61
2023/07/15 09:12:14;;;;;;;0.32;0.30;;;24.10;76.40;;;;;;6344136;28;20042;-60
2023/07/15 09:15:16;;;;;;;0.30;0.28;;;24.40;76.40;;;;;;6342502;28;20409;-60
2023/07/15 09:18:18;;;;;;;0.30;0.22;;;24.50;76.60;;;;;;6344834;28;20039;-61
2023/07/15 09:21:23;;;;;;;0.68;0.30;;;24.60;76.80;;;;;;6344854;28;20092;-61
2023/07/15 09:24:24;;;;;;;0.20;0.20;;;24.10;76.10;;;;;;6343711;27;20092;-61
2023/07/15 09:27:26;;;;;;;0.40;0.40;;;24.10;76.40;;;;;;6344925;27;20574;-61
2023/07/15 09:30:29;;;;;;;0.40;0.20;;;24.70;76.10;;;;;;6325181;28;20482;-61
2023/07/15 09:33:32;;;;;;;0.77;0.32;;;24.50;75.80;;;;;;6343723;27;20621;-61
2023/07/15 09:36:35;;;;;;;0.90;0.50;;;24.50;75.60;;;;;;6344121;28;20031;-61
2023/07/15 09:39:37;;;;;;;0.43;0.40;;;24.60;76.30;;;;;;6344596;28;20532;-61
2023/07/15 09:42:49;;;;;;;0.57;0.38;;;24.50;75.60;;;;;;6344986;28;20268;-61
2023/07/15 09:45:53;;;;;;;0.65;0.43;;;24.70;76.00;;;;;;6344485;27;20039;-61
2023/07/15 09:48:56;;;;;;;0.70;0.50;;;24.60;75.20;;;;;;6343604;28;20074;-61
2023/07/15 09:51:59;;;;;;;0.80;0.45;;;24.50;75.10;;;;;;6343316;28;20095;-61
2023/07/15 09:55:02;;;;;;;0.63;0.45;;;24.60;75.40;;;;;;6343607;27;20051;-61
2023/07/15 09:58:09;;;;;;;1.17;0.60;;;24.60;75.20;;;;;;6343818;27;20678;-61
2023/07/15 10:01:17;;;;;;;0.98;0.60;;;24.10;74.30;;;;;;6344413;28;20505;-61
2023/07/15 10:04:31;;;;;;;0.70;0.30;;;24.60;74.60;;;;;;6344540;28;20039;-61
2023/07/15 10:07:36;;;;;;;0.60;0.40;;;24.80;75.00;;;;;;6326911;28;20508;-60
2023/07/15 10:10:41;;;;;;;0.45;0.40;;;24.80;71.00;;;;;;6308263;28;20039;-60
2023/07/15 10:13:45;;;;;;;1.98;0.50;;;24.60;91.20;;;;;;6324556;28;20045;-60
2023/07/15 10:17:06;;;;;;;0.70;0.22;;;24.70;73.60;;;;;;6343619;27;20039;-60
2023/07/15 10:20:11;;;;;;;1.30;0.30;;;24.70;74.40;;;;;;6343919;28;20490;-60
2023/07/15 10:23:23;;;;;;;0.70;0.43;;;24.70;74.30;;;;;;6343799;27;20042;-60
2023/07/15 10:26:25;;;;;;;0.50;0.38;;;24.60;73.70;;;;;;6344518;28;20031;-60
2023/07/15 10:29:29;;;;;;;0.73;0.40;;;24.50;73.70;;;;;;6344249;27;20050;-61
2023/07/15 10:32:32;;;;;;;0.25;0.22;;;24.60;73.70;;;;;;6343253;27;20039;-61
2023/07/15 10:35:35;;;;;;;0.70;0.30;;;24.60;73.70;;;;;;6342770;27;20069;-61
2023/07/15 10:38:36;;;;;;;0.45;0.30;;;24.50;73.70;;;;;;6325712;28;20452;-61
2023/07/15 10:41:41;;;;;;;1.15;0.50;;;24.50;73.60;;;;;;6342200;27;20150;-61
2023/07/15 10:44:48;;;;;;;0.70;0.30;;;24.30;74.10;;;;;;6325352;28;20254;-60
2023/07/15 10:47:50;;;;;;;0.93;0.30;;;24.80;73.80;;;;;;6324899;28;20062;-60
2023/07/15 10:50:53;;;;;;;0.43;0.40;;;24.30;73.70;;;;;;6343990;28;20046;-60
2023/07/15 10:53:54;;;;;;;0.30;0.20;;;24.50;73.50;;;;;;6343301;27;20509;-61
2023/07/15 10:57:08;;;;;;;0.20;0.20;;;24.60;73.60;;;;;;6342223;27;20421;-60
2023/07/15 11:00:09;;;;;;;0.45;0.30;;;24.70;73.20;;;;;;6343170;27;20245;-60
2023/07/15 11:03:12;;;;;;;0.50;0.30;;;24.70;73.30;;;;;;6343612;28;20088;-61
2023/07/15 11:06:13;;;;;;;0.75;0.30;;;24.50;73.60;;;;;;6343109;27;20043;-61
2023/07/15 11:09:20;;;;;;;0.65;0.30;;;24.50;73.00;;;;;;6345627;27;20512;-60
2023/07/15 11:12:22;;;;;;;0.20;0.20;;;24.50;72.80;;;;;;6313080;28;20039;-60
2023/07/15 11:15:28;;;;;;;1.02;0.47;;;24.70;73.60;;;;;;6346021;28;20468;-60
2023/07/15 11:18:31;;;;;;;0.60;0.50;;;24.30;72.60;;;;;;6347537;28;20050;-61
2023/07/15 11:21:34;;;;;;;0.57;0.20;;;24.80;73.30;;;;;;6346614;28;20038;-61
2023/07/15 11:24:36;;;;;;;0.50;0.30;;;24.70;73.10;;;;;;6347535;27;20526;-61
2023/07/15 11:27:42;;;;;;;0.90;0.40;;;24.70;72.60;;;;;;6345871;28;20035;-60
2023/07/15 11:30:46;;;;;;;0.68;0.25;;;24.50;72.20;;;;;;6346724;27;20520;-60
2023/07/15 11:33:51;;;;;;;0.63;0.30;;;24.40;71.90;;;;;;6311787;28;20039;-61
2023/07/15 11:36:54;;;;;;;0.45;0.28;;;24.70;72.30;;;;;;6347039;28;20615;-61
2023/07/15 11:39:59;;;;;;;0.20;0.20;;;24.30;71.40;;;;;;6312379;28;20336;-61
2023/07/15 11:43:01;;;;;;;0.43;0.30;;;24.70;72.00;;;;;;6347122;28;20047;-60
2023/07/15 11:46:02;;;;;;;0.55;0.30;;;24.60;71.80;;;;;;6347296;28;20042;-61
2023/07/15 11:49:05;;;;;;;0.30;0.30;;;24.30;70.70;;;;;;6346930;28;20036;-61
2023/07/15 11:52:18;;;;;;;0.75;0.25;;;24.90;71.40;;;;;;6310710;28;20032;-61
2023/07/15 11:55:24;;;;;;;0.57;0.20;;;24.30;70.70;;;;;;6346338;28;20123;-61
2023/07/15 11:58:36;;;;;;;0.52;0.50;;;24.60;70.60;;;;;;6346382;27;20344;-61
2023/07/15 12:01:40;;;;;;;1.05;0.30;;;24.50;69.80;;;;;;6346086;28;20039;-61
2023/07/15 12:04:42;;;;;;;0.82;0.20;;;24.70;69.60;;;;;;6346359;28;20578;-61
2023/07/15 12:07:48;;;;;;;0.47;0.30;;;24.70;69.20;;;;;;6346203;28;20114;-61
2023/07/15 12:10:50;;;;;;;0.40;0.20;;;24.50;68.90;;;;;;6343634;27;20327;-61
2023/07/15 12:13:51;;;;;;;0.43;0.40;;;24.90;69.30;;;;;;6343373;27;20243;-61
2023/07/15 12:16:58;;;;;;;0.52;0.30;;;23.30;68.10;;;;;;6345062;27;20556;-61
2023/07/15 12:20:03;;;;;;;0.35;0.30;;;24.70;68.80;;;;;;6345001;27;20061;-61
2023/07/15 12:23:09;;;;;;;0.55;0.30;;;24.90;68.90;;;;;;6345581;28;20522;-60
2023/07/15 12:26:11;;;;;;;0.30;0.30;;;25.00;68.70;;;;;;6327197;28;20039;-61
2023/07/15 12:29:13;;;;;;;0.30;0.20;;;24.80;68.00;;;;;;6345564;27;20346;-61
2023/07/15 12:32:17;;;;;;;0.45;0.25;;;24.50;67.50;;;;;;6345901;28;20042;-61
2023/07/15 12:35:19;;;;;;;0.73;0.22;;;24.70;67.50;;;;;;6344331;27;20116;-61
2023/07/15 12:38:21;;;;;;;0.60;0.38;;;24.90;66.90;;;;;;6344490;28;20112;-61
2023/07/15 12:41:22;;;;;;;0.73;0.30;;;24.80;66.80;;;;;;6345009;28;20196;-61
2023/07/15 12:44:25;;;;;;;0.45;0.30;;;24.90;66.50;;;;;;6346580;27;20034;-61
2023/07/15 12:47:28;;;;;;;0.52;0.28;;;24.90;66.00;;;;;;6344663;28;20031;-61
2023/07/15 12:50:30;;;;;;;0.45;0.30;;;24.90;65.70;;;;;;6345360;27;20065;-61
2023/07/15 12:53:34;;;;;;;0.50;0.20;;;24.70;65.40;;;;;;6343717;28;20544;-61
2023/07/15 12:56:36;;;;;;;0.88;0.32;;;24.70;84.20;;;;;;6344548;27;20308;-61
2023/07/15 12:59:38;;;;;;;0.55;0.30;;;24.90;65.10;;;;;;6345842;28;20042;-61
2023/07/15 13:02:42;;;;;;;0.20;0.20;;;25.10;64.60;;;;;;6344512;27;20103;-61
2023/07/15 13:05:47;;;;;;;1.50;0.43;;;24.70;60.90;;;;;;6345171;28;20039;-61
2023/07/15 13:08:49;;;;;;;0.68;0.30;;;24.50;64.00;;;;;;6324037;28;20578;-61
2023/07/15 13:11:53;;;;;;;0.52;0.30;;;25.10;64.10;;;;;;6343006;27;20050;-61
2023/07/15 13:14:56;;;;;;;0.32;0.20;;;24.90;63.50;;;;;;6344139;28;21027;-61
2023/07/15 13:17:58;;;;;;;1.40;0.30;;;24.90;63.40;;;;;;6345316;27;20058;-61
2023/07/15 13:21:00;;;;;;;0.50;0.20;;;24.90;63.50;;;;;;6343339;28;20031;-61
2023/07/15 13:24:03;;;;;;;0.20;0.20;;;25.00;63.20;;;;;;6344464;28;20426;-61
2023/07/15 13:27:05;;;;;;;0.30;0.20;;;25.10;63.10;;;;;;6342438;28;20447;-61
2023/07/15 13:30:08;;;;;;;0.65;0.22;;;25.10;62.20;;;;;;6342414;27;20042;-60
2023/07/15 13:33:09;;;;;;;0.30;0.20;;;25.10;62.00;;;;;;6341910;27;20035;-61
2023/07/15 13:36:12;;;;;;;0.30;0.17;;;25.10;61.80;;;;;;6342519;28;20562;-61
2023/07/15 13:39:32;;;;;;;0.40;0.40;;;25.10;61.50;;;;;;6342008;27;20039;-61
2023/07/15 13:42:34;;;;;;;0.65;0.28;;;25.10;61.10;;;;;;6328345;28;20031;-61
2023/07/15 13:45:35;;;;;;;0.47;0.25;;;25.00;61.20;;;;;;6338453;28;20043;-61
2023/07/15 13:48:37;;;;;;;0.38;0.30;;;24.80;61.00;;;;;;6341797;28;20402;-61
2023/07/15 13:51:42;;;;;;;0.85;0.20;;;25.10;60.90;;;;;;6343848;28;20045;-60
2023/07/15 13:54:44;;;;;;;0.35;0.30;;;25.10;60.50;;;;;;6343159;27;20068;-61
2023/07/15 13:57:46;;;;;;;0.35;0.20;;;25.10;60.40;;;;;;6343964;27;20035;-61
2023/07/15 14:00:49;;;;;;;0.40;0.20;;;25.30;60.20;;;;;;6343476;27;20475;-61
2023/07/15 14:03:51;;;;;;;0.30;0.30;;;24.80;60.10;;;;;;6343447;27;20046;-60
2023/07/15 14:06:53;;;;;;;0.60;0.30;;;25.30;59.90;;;;;;6341832;28;20027;-61
2023/07/15 14:09:55;;;;;;;0.43;0.20;;;25.30;59.50;;;;;;6341886;27;20035;-61
2023/07/15 14:12:56;;;;;;;0.68;0.32;;;25.20;59.60;;;;;;6340518;28;20035;-61
2023/07/15 14:15:58;;;;;;;0.55;0.28;;;25.10;59.80;;;;;;6340452;27;20621;-60
2023/07/15 14:19:03;;;;;;;0.55;0.20;;;25.10;59.30;;;;;;6341433;27;20055;-60
2023/07/15 14:22:05;;;;;;;0.40;0.20;;;25.20;59.20;;;;;;6340387;28;20050;-60
2023/07/15 14:25:18;;;;;;;0.40;0.40;;;25.30;59.30;;;;;;6342995;28;20081;-60
2023/07/15 14:28:21;;;;;;;0.40;0.20;;;25.00;59.00;;;;;;6341109;27;20074;-60
2023/07/15 14:31:22;;;;;;;0.52;0.30;;;25.20;59.20;;;;;;6341455;27;20035;-61
2023/07/15 14:34:24;;;;;;;0.38;0.30;;;25.00;58.70;;;;;;6342643;28;20546;-61
2023/07/15 14:37:28;;;;;;;0.75;0.43;;;25.20;59.10;;;;;;6341034;27;20039;-60
2023/07/15 14:40:29;;;;;;;1.00;0.40;;;25.00;58.70;;;;;;6342283;28;20158;-61
2023/07/15 14:43:31;;;;;;;0.52;0.40;;;25.20;59.10;;;;;;6345947;27;20051;-60
2023/07/15 14:46:33;;;;;;;0.90;0.50;;;25.20;58.90;;;;;;6347006;28;20042;-60
2023/07/15 14:49:37;;;;;;;0.60;0.40;;;24.70;59.30;;;;;;6346005;28;20031;-61
2023/07/15 14:52:41;;;;;;;0.68;0.30;;;25.10;59.30;;;;;;6345570;28;20383;-61
2023/07/15 14:55:43;;;;;;;0.60;0.40;;;25.30;58.90;;;;;;6344668;27;20027;-61
2023/07/15 14:58:44;;;;;;;0.57;0.32;;;25.10;58.70;;;;;;6347797;27;20072;-61
2023/07/15 15:01:46;;;;;;;0.60;0.30;;;25.00;58.70;;;;;;6346617;28;20494;-60
2023/07/15 15:04:48;;;;;;;0.40;0.20;;;25.00;58.50;;;;;;6348066;28;20043;-60
2023/07/15 15:07:50;;;;;;;0.75;0.47;;;25.10;58.60;;;;;;6345394;27;20092;-61
2023/07/15 15:10:56;;;;;;;0.70;0.30;;;25.20;58.90;;;;;;6346946;28;20043;-61
2023/07/15 15:13:57;;;;;;;0.60;0.50;;;25.20;58.70;;;;;;6346465;27;20039;-60
2023/07/15 15:16:59;;;;;;;0.50;0.43;;;25.10;58.40;;;;;;6346954;28;20074;-61
2023/07/15 15:20:03;;;;;;;1.70;0.40;;;25.10;58.50;;;;;;6347392;28;20039;-61
2023/07/15 15:23:05;;;;;;;0.80;0.35;;;24.80;58.70;;;;;;6347084;28;20066;-61
2023/07/15 15:26:06;;;;;;;0.60;0.40;;;25.00;58.40;;;;;;6345637;28;20038;-61
2023/07/15 15:29:08;;;;;;;0.80;0.52;;;25.10;58.30;;;;;;6346755;28;20039;-60
2023/07/15 15:32:12;;;;;;;0.73;0.50;;;25.00;58.30;;;;;;6346551;28;20043;-61
2023/07/15 15:35:18;;;;;;;1.35;0.50;;;24.80;58.00;;;;;;6346628;27;20410;-60
2023/07/15 15:38:20;;;;;;;0.40;0.30;;;25.30;58.20;;;;;;6344887;27;20411;-60
2023/07/15 15:41:22;;;;;;;0.63;0.52;;;25.10;57.90;;;;;;6346917;28;20043;-61
2023/07/15 15:44:23;;;;;;;0.60;0.43;;;25.20;58.00;;;;;;6347728;27;20031;-60
2023/07/15 15:47:25;;;;;;;0.70;0.60;;;25.10;57.70;;;;;;6346887;27;20039;-60
2023/07/15 15:50:27;;;;;;;0.85;0.52;;;25.20;57.90;;;;;;6346841;27;20031;-60
2023/07/15 15:53:29;;;;;;;0.82;0.60;;;25.20;57.80;;;;;;6344270;27;20093;-60